sensor_id;sensor_type;location;lat;lon;timestamp;pressure;altitude;pressure_sealevel;temperature;humidity
5679;BME280;2862;52.560;13.566;2023-01-16T00:06:04;99133.75;;;4.77;82.68
5679;BME280;2862;52.560;13.566;2023-01-16T00:16:07;99135.06;;;4.93;81.68
5679;BME280;2862;52.560;13.566;2023-01-16T00:26:12;99141.41;;;5.01;81.48
5679;BME280;2862;52.560;13.566;2023-01-16T00:36:14;99144.75;;;5.03;80.86
5679;BME280;2862;52.560;13.566;2023-01-16T00:46:19;99142.41;;;5.10;80.89
5679;BME280;2862;52.560;13.566;2023-01-16T00:56:22;99155.22;;;5.05;80.66
5679;BME280;2862;52.560;13.566;2023-01-16T01:06:27;99153.53;;;5.04;80.70
5679;BME280;2862;52.560;13.566;2023-01-16T01:16:30;99155.63;;;5.00;80.62
5679;BME280;2862;52.560;13.566;2023-01-16T01:26:35;99147.91;;;4.97;80.67
5679;BME280;2862;52.560;13.566;2023-01-16T01:36:38;99165.97;;;4.83;81.52
5679;BME280;2862;52.560;13.566;2023-01-16T01:46:44;99148.81;;;4.45;82.96
5679;BME280;2862;52.560;13.566;2023-01-16T01:56:53;99151.00;;;4.40;83.27
5679;BME280;2862;52.560;13.566;2023-01-16T02:07:02;99142.38;;;4.38;83.84
5679;BME280;2862;52.560;13.566;2023-01-16T02:17:09;99152.34;;;4.34;84.02
5679;BME280;2862;52.560;13.566;2023-01-16T02:38:17;99120.41;;;4.47;83.68
5679;BME280;2862;52.560;13.566;2023-01-16T02:48:27;99114.81;;;4.19;84.85
5679;BME280;2862;52.560;13.566;2023-01-16T02:58:37;99101.53;;;4.31;85.04
5679;BME280;2862;52.560;13.566;2023-01-16T03:08:45;99089.56;;;4.15;85.88
5679;BME280;2862;52.560;13.566;2023-01-16T03:19:02;99079.44;;;4.20;86.10
5679;BME280;2862;52.560;13.566;2023-01-16T03:29:15;99073.31;;;4.20;86.04
5679;BME280;2862;52.560;13.566;2023-01-16T03:39:25;99050.53;;;4.29;85.60
5679;BME280;2862;52.560;13.566;2023-01-16T03:49:31;99047.16;;;4.06;87.17
5679;BME280;2862;52.560;13.566;2023-01-16T03:59:38;99041.47;;;3.89;88.07
5679;BME280;2862;52.560;13.566;2023-01-16T04:09:45;99032.66;;;4.00;87.55
5679;BME280;2862;52.560;13.566;2023-01-16T04:19:51;99026.34;;;3.91;87.73
5679;BME280;2862;52.560;13.566;2023-01-16T04:29:54;99001.25;;;3.86;88.12
5679;BME280;2862;52.560;13.566;2023-01-16T04:40:00;98982.84;;;3.63;89.47
5679;BME280;2862;52.560;13.566;2023-01-16T04:50:04;98973.19;;;3.41;90.65
5679;BME280;2862;52.560;13.566;2023-01-16T05:00:11;98957.50;;;3.29;91.14
5679;BME280;2862;52.560;13.566;2023-01-16T05:10:14;98958.59;;;3.26;91.49
5679;BME280;2862;52.560;13.566;2023-01-16T05:20:19;98958.38;;;3.18;91.74
5679;BME280;2862;52.560;13.566;2023-01-16T05:30:23;98934.78;;;3.05;92.72
5679;BME280;2862;52.560;13.566;2023-01-16T05:40:28;98935.31;;;3.20;91.97
5679;BME280;2862;52.560;13.566;2023-01-16T05:50:31;98937.81;;;3.33;91.41
5679;BME280;2862;52.560;13.566;2023-01-16T06:00:36;98932.25;;;3.36;90.97
5679;BME280;2862;52.560;13.566;2023-01-16T06:10:38;98916.44;;;3.57;89.84
5679;BME280;2862;52.560;13.566;2023-01-16T06:20:43;98902.25;;;3.58;90.42
5679;BME280;2862;52.560;13.566;2023-01-16T06:30:50;98897.34;;;3.53;89.22
5679;BME280;2862;52.560;13.566;2023-01-16T06:40:55;98887.69;;;3.63;89.27
5679;BME280;2862;52.560;13.566;2023-01-16T06:50:58;98883.00;;;3.46;89.21
5679;BME280;2862;52.560;13.566;2023-01-16T07:01:03;98867.63;;;4.43;93.37
5679;BME280;2862;52.560;13.566;2023-01-16T07:11:06;98869.97;;;3.96;86.47
5679;BME280;2862;52.560;13.566;2023-01-16T07:21:12;98860.41;;;3.84;88.19
5679;BME280;2862;52.560;13.566;2023-01-16T07:31:33;98849.06;;;3.72;88.03
5679;BME280;2862;52.560;13.566;2023-01-16T07:41:38;98844.97;;;3.58;87.76
5679;BME280;2862;52.560;13.566;2023-01-16T07:51:57;98844.97;;;3.79;87.29
5679;BME280;2862;52.560;13.566;2023-01-16T08:02:01;98831.66;;;3.90;86.96
5679;BME280;2862;52.560;13.566;2023-01-16T08:12:04;98821.38;;;3.97;86.36
5679;BME280;2862;52.560;13.566;2023-01-16T08:22:08;98814.16;;;3.99;85.75
5679;BME280;2862;52.560;13.566;2023-01-16T08:32:11;98796.91;;;4.05;85.30
5679;BME280;2862;52.560;13.566;2023-01-16T08:42:15;98765.75;;;4.18;84.53
5679;BME280;2862;52.560;13.566;2023-01-16T08:52:36;98752.63;;;4.76;82.68
5679;BME280;2862;52.560;13.566;2023-01-16T09:02:41;98729.03;;;5.12;78.12
5679;BME280;2862;52.560;13.566;2023-01-16T09:12:44;98711.84;;;6.00;75.14
5679;BME280;2862;52.560;13.566;2023-01-16T09:23:06;98683.41;;;6.37;71.23
5679;BME280;2862;52.560;13.566;2023-01-16T09:33:09;98675.34;;;6.29;70.67
5679;BME280;2862;52.560;13.566;2023-01-16T09:43:30;98656.31;;;6.52;69.49
5679;BME280;2862;52.560;13.566;2023-01-16T09:53:46;98644.56;;;6.36;69.52
5679;BME280;2862;52.560;13.566;2023-01-16T10:04:17;98619.00;;;6.71;67.83
5679;BME280;2862;52.560;13.566;2023-01-16T10:14:35;98593.09;;;6.73;67.49
5679;BME280;2862;52.560;13.566;2023-01-16T10:24:55;98586.84;;;6.82;67.10
5679;BME280;2862;52.560;13.566;2023-01-16T10:35:04;98554.13;;;7.08;66.05
5679;BME280;2862;52.560;13.566;2023-01-16T10:45:15;98533.88;;;7.15;64.68
5679;BME280;2862;52.560;13.566;2023-01-16T10:55:39;98523.00;;;7.34;63.64
5679;BME280;2862;52.560;13.566;2023-01-16T11:05:44;98491.41;;;7.39;66.68
5679;BME280;2862;52.560;13.566;2023-01-16T11:16:03;98462.09;;;7.98;60.92
5679;BME280;2862;52.560;13.566;2023-01-16T11:26:30;98444.28;;;7.74;61.86
5679;BME280;2862;52.560;13.566;2023-01-16T11:36:34;98422.00;;;7.59;61.89
5679;BME280;2862;52.560;13.566;2023-01-16T11:46:40;98389.56;;;7.31;63.48
5679;BME280;2862;52.560;13.566;2023-01-16T11:56:50;98389.75;;;7.29;63.00
5679;BME280;2862;52.560;13.566;2023-01-16T12:07:03;98357.50;;;7.24;62.13
5679;BME280;2862;52.560;13.566;2023-01-16T12:17:20;98334.25;;;7.18;61.82
5679;BME280;2862;52.560;13.566;2023-01-16T12:27:36;98310.31;;;7.26;60.99
5679;BME280;2862;52.560;13.566;2023-01-16T12:38:00;98294.06;;;7.29;60.66
5679;BME280;2862;52.560;13.566;2023-01-16T12:48:17;98256.50;;;7.16;59.13
5679;BME280;2862;52.560;13.566;2023-01-16T12:58:25;98240.91;;;7.13;60.22
5679;BME280;2862;52.560;13.566;2023-01-16T13:08:33;98216.16;;;7.21;60.75
5679;BME280;2862;52.560;13.566;2023-01-16T13:18:42;98176.66;;;7.17;60.22
5679;BME280;2862;52.560;13.566;2023-01-16T13:28:51;98183.78;;;7.09;62.12
5679;BME280;2862;52.560;13.566;2023-01-16T13:39:04;98164.38;;;7.00;64.84
5679;BME280;2862;52.560;13.566;2023-01-16T13:49:18;98151.25;;;6.82;64.72
5679;BME280;2862;52.560;13.566;2023-01-16T13:59:41;98132.34;;;6.69;65.42
5679;BME280;2862;52.560;13.566;2023-01-16T14:10:06;98102.84;;;6.56;64.58
5679;BME280;2862;52.560;13.566;2023-01-16T14:20:36;98088.41;;;6.50;64.13
5679;BME280;2862;52.560;13.566;2023-01-16T14:30:45;98074.78;;;6.45;65.12
5679;BME280;2862;52.560;13.566;2023-01-16T14:40:51;98062.03;;;6.32;65.62
5679;BME280;2862;52.560;13.566;2023-01-16T14:51:18;98051.94;;;6.20;66.62
5679;BME280;2862;52.560;13.566;2023-01-16T15:01:47;98018.59;;;6.09;68.24
5679;BME280;2862;52.560;13.566;2023-01-16T15:12:13;98023.53;;;5.96;68.89
5679;BME280;2862;52.560;13.566;2023-01-16T15:22:37;98020.03;;;5.87;69.97
5679;BME280;2862;52.560;13.566;2023-01-16T15:32:53;98017.53;;;5.69;71.92
5679;BME280;2862;52.560;13.566;2023-01-16T15:42:57;98018.31;;;5.53;72.76
5679;BME280;2862;52.560;13.566;2023-01-16T15:53:19;97995.94;;;5.48;73.34
5679;BME280;2862;52.560;13.566;2023-01-16T16:03:28;97979.03;;;5.32;73.47
5679;BME280;2862;52.560;13.566;2023-01-16T16:13:34;97953.03;;;5.28;72.56
5679;BME280;2862;52.560;13.566;2023-01-16T16:23:39;97961.63;;;5.30;72.67
5679;BME280;2862;52.560;13.566;2023-01-16T16:33:52;97948.22;;;5.23;72.96
5679;BME280;2862;52.560;13.566;2023-01-16T16:43:57;97928.34;;;5.19;73.42
5679;BME280;2862;52.560;13.566;2023-01-16T16:54:06;97924.69;;;5.12;73.09
5679;BME280;2862;52.560;13.566;2023-01-16T17:04:11;97914.09;;;5.12;73.02
5679;BME280;2862;52.560;13.566;2023-01-16T17:14:20;97882.44;;;5.02;73.02
5679;BME280;2862;52.560;13.566;2023-01-16T17:24:23;97876.97;;;4.96;73.29
5679;BME280;2862;52.560;13.566;2023-01-16T17:34:27;97851.47;;;4.87;73.10
5679;BME280;2862;52.560;13.566;2023-01-16T17:44:31;97845.88;;;4.90;73.08
5679;BME280;2862;52.560;13.566;2023-01-16T17:54:53;97851.97;;;4.82;72.86
5679;BME280;2862;52.560;13.566;2023-01-16T18:05:15;97844.69;;;4.76;73.40
5679;BME280;2862;52.560;13.566;2023-01-16T18:15:23;97832.09;;;4.86;72.89
5679;BME280;2862;52.560;13.566;2023-01-16T18:25:47;97827.31;;;4.90;72.28
5679;BME280;2862;52.560;13.566;2023-01-16T18:35:59;97810.78;;;5.04;72.26
5679;BME280;2862;52.560;13.566;2023-01-16T18:46:02;97802.84;;;4.96;71.84
5679;BME280;2862;52.560;13.566;2023-01-16T18:56:26;97809.94;;;4.87;72.27
5679;BME280;2862;52.560;13.566;2023-01-16T19:06:47;97772.22;;;4.85;72.53
5679;BME280;2862;52.560;13.566;2023-01-16T19:16:52;97742.94;;;4.78;72.59
5679;BME280;2862;52.560;13.566;2023-01-16T19:26:58;97731.53;;;4.78;72.81
5679;BME280;2862;52.560;13.566;2023-01-16T19:37:02;97713.97;;;4.85;73.05
5679;BME280;2862;52.560;13.566;2023-01-16T19:47:06;97698.28;;;4.84;72.86
5679;BME280;2862;52.560;13.566;2023-01-16T19:57:11;97680.06;;;4.80;72.52
5679;BME280;2862;52.560;13.566;2023-01-16T20:07:14;97658.75;;;4.82;72.50
5679;BME280;2862;52.560;13.566;2023-01-16T20:17:18;97624.69;;;4.71;73.05
5679;BME280;2862;52.560;13.566;2023-01-16T20:27:22;97613.91;;;4.80;72.98
5679;BME280;2862;52.560;13.566;2023-01-16T20:37:26;97596.38;;;4.79;72.94
5679;BME280;2862;52.560;13.566;2023-01-16T20:47:30;97568.91;;;4.80;72.89
5679;BME280;2862;52.560;13.566;2023-01-16T20:57:34;97563.47;;;4.74;72.35
5679;BME280;2862;52.560;13.566;2023-01-16T21:07:37;97541.00;;;4.62;72.68
5679;BME280;2862;52.560;13.566;2023-01-16T21:17:41;97530.09;;;4.57;73.30
5679;BME280;2862;52.560;13.566;2023-01-16T21:28:02;97540.03;;;4.55;73.13
5679;BME280;2862;52.560;13.566;2023-01-16T21:38:06;97500.31;;;4.63;73.51
5679;BME280;2862;52.560;13.566;2023-01-16T21:48:13;97490.56;;;4.47;73.84
5679;BME280;2862;52.560;13.566;2023-01-16T21:58:19;97468.94;;;4.43;74.25
5679;BME280;2862;52.560;13.566;2023-01-16T22:08:22;97474.56;;;4.40;74.77
5679;BME280;2862;52.560;13.566;2023-01-16T22:18:28;97459.88;;;4.38;75.02
5679;BME280;2862;52.560;13.566;2023-01-16T22:28:35;97434.56;;;4.35;75.33
5679;BME280;2862;52.560;13.566;2023-01-16T22:38:40;97424.81;;;4.44;74.70
5679;BME280;2862;52.560;13.566;2023-01-16T22:48:43;97416.38;;;4.40;75.08
5679;BME280;2862;52.560;13.566;2023-01-16T22:58:47;97406.28;;;4.44;74.87
5679;BME280;2862;52.560;13.566;2023-01-16T23:08:50;97403.97;;;4.49;75.12
5679;BME280;2862;52.560;13.566;2023-01-16T23:18:58;97395.06;;;4.42;75.55
5679;BME280;2862;52.560;13.566;2023-01-16T23:29:01;97373.75;;;4.35;75.82
5679;BME280;2862;52.560;13.566;2023-01-16T23:39:10;97350.09;;;4.42;75.61
5679;BME280;2862;52.560;13.566;2023-01-16T23:49:14;97354.38;;;4.43;76.06
5679;BME280;2862;52.560;13.566;2023-01-16T23:59:18;97329.97;;;4.33;76.05
